Time;durP1;ratioP1;P1;durP2;ratioP2;P2;SDS_P1;SDS_P2;PMS_P1;PMS_P2;Temp;Humidity;BMP_temperature;BMP_pressure;BME280_temperature;BME280_humidity;BME280_pressure;Samples;Min_cycle;Max_cycle;Signal;HPM_P1;HPM_P2
2022/11/17 00:01:20;;;;;;;14.73;4.80;;;8.40;99.90;;;;;;5038069;28;20426;-80
2022/11/17 00:03:50;;;;;;;14.60;6.13;;;8.40;99.90;;;;;;5036066;28;20033;-82
2022/11/17 00:06:19;;;;;;;12.95;6.53;;;8.40;99.90;;;;;;5034630;28;20492;-80
2022/11/17 00:08:47;;;;;;;17.45;6.38;;;8.40;99.90;;;;;;5029450;28;20055;-80
2022/11/17 00:11:13;;;;;;;15.55;6.53;;;8.40;99.90;;;;;;5040762;28;20040;-80
2022/11/17 00:16:28;;;;;;;8.18;5.22;;;8.50;99.90;;;;;;5036058;28;20049;-81
2022/11/17 00:21:43;;;;;;;9.63;5.70;;;8.50;99.90;;;;;;5033476;28;20052;-80
2022/11/17 00:24:15;;;;;;;7.72;4.97;;;8.50;99.90;;;;;;5036962;28;20395;-80
2022/11/17 00:27:00;;;;;;;14.40;5.93;;;8.50;99.90;;;;;;5039292;28;20045;-80
2022/11/17 00:29:38;;;;;;;9.38;4.50;;;8.60;99.90;;;;;;5016494;28;20064;-81
2022/11/17 00:34:54;;;;;;;10.70;5.65;;;8.60;99.90;;;;;;5040622;28;20056;-81
2022/11/17 00:37:20;;;;;;;9.63;4.85;;;8.60;99.90;;;;;;5038668;28;20041;-80
2022/11/17 00:39:48;;;;;;;9.02;4.20;;;8.60;99.90;;;;;;5035753;28;20049;-81
2022/11/17 00:42:14;;;;;;;6.15;4.05;;;8.60;99.90;;;;;;5043286;28;20030;-81
2022/11/17 00:44:39;;;;;;;11.10;4.68;;;8.60;99.90;;;;;;5042605;28;20043;-80
2022/11/17 00:47:05;;;;;;;6.47;3.50;;;8.60;99.90;;;;;;5046182;28;20373;-80
2022/11/17 00:49:31;;;;;;;9.70;4.82;;;8.60;99.90;;;;;;5027571;28;20048;-79
2022/11/17 00:52:00;;;;;;;12.13;5.32;;;8.70;99.90;;;;;;5037901;28;21058;-84
2022/11/17 00:54:25;;;;;;;9.63;4.97;;;8.70;99.90;;;;;;5038267;28;20073;-81
2022/11/17 00:56:52;;;;;;;9.63;4.80;;;8.60;99.90;;;;;;5035544;28;20054;-80
2022/11/17 00:59:18;;;;;;;5.95;3.97;;;8.70;99.90;;;;;;5033230;28;20058;-83
2022/11/17 01:02:05;;;;;;;11.55;5.05;;;8.70;99.90;;;;;;5037448;28;20040;-80
2022/11/17 01:04:39;;;;;;;11.60;4.57;;;8.80;99.90;;;;;;5021035;28;20045;-81
2022/11/17 01:07:05;;;;;;;7.50;3.83;;;8.70;99.90;;;;;;5035282;28;20053;-80
2022/11/17 01:09:31;;;;;;;8.80;5.47;;;8.70;99.90;;;;;;5037273;28;20045;-80
2022/11/17 01:11:56;;;;;;;7.43;4.35;;;8.70;99.90;;;;;;5046647;28;20118;-80
2022/11/17 01:14:25;;;;;;;8.25;4.53;;;8.70;99.90;;;;;;5040008;28;20052;-80
2022/11/17 01:16:52;;;;;;;12.45;4.68;;;8.60;99.90;;;;;;5038097;28;20052;-80
2022/11/17 01:19:18;;;;;;;13.57;5.13;;;8.70;99.90;;;;;;5031193;28;20053;-81
2022/11/17 01:21:45;;;;;;;7.20;3.97;;;8.70;99.90;;;;;;5033306;28;20041;-80
2022/11/17 01:24:14;;;;;;;9.02;5.15;;;8.70;99.90;;;;;;5034438;28;20056;-83
2022/11/17 01:26:46;;;;;;;7.25;5.18;;;8.70;99.90;;;;;;5035462;28;20139;-80
2022/11/17 01:29:17;;;;;;;11.82;4.15;;;8.70;99.90;;;;;;5032424;28;20091;-80
2022/11/17 01:31:48;;;;;;;7.50;3.97;;;8.70;99.90;;;;;;5011995;28;20331;-81
2022/11/17 01:34:14;;;;;;;10.40;5.22;;;8.80;99.90;;;;;;5012480;28;20059;-83
2022/11/17 01:39:27;;;;;;;8.65;4.47;;;8.80;99.90;;;;;;5032219;28;20041;-79
2022/11/17 01:41:53;;;;;;;7.32;3.97;;;8.80;99.90;;;;;;5034860;28;20527;-81
2022/11/17 01:44:53;;;;;;;9.18;3.88;;;8.80;99.90;;;;;;5038080;28;20271;-80
2022/11/17 01:47:27;;;;;;;10.05;4.18;;;8.70;99.90;;;;;;5015071;28;20429;-80
2022/11/17 01:50:26;;;;;;;8.45;3.17;;;8.80;99.90;;;;;;5031270;28;20552;-81
2022/11/17 01:52:56;;;;;;;8.05;4.28;;;8.80;99.90;;;;;;5043604;28;20577;-79
2022/11/17 01:55:24;;;;;;;9.73;4.85;;;8.70;99.90;;;;;;5038472;28;20053;-80
2022/11/17 01:57:59;;;;;;;13.32;5.07;;;8.60;99.90;;;;;;5037732;28;20050;-80
2022/11/17 02:00:26;;;;;;;7.07;4.93;;;8.70;99.90;;;;;;5035754;28;20467;-79
2022/11/17 02:02:52;;;;;;;7.05;4.28;;;8.70;99.90;;;;;;5027120;28;20045;-80
2022/11/17 02:05:42;;;;;;;10.85;4.30;;;8.60;99.90;;;;;;5037333;28;20291;-81
2022/11/17 02:08:09;;;;;;;14.23;5.13;;;8.70;99.90;;;;;;5027939;28;20128;-80
2022/11/17 02:10:36;;;;;;;11.27;3.92;;;8.70;99.90;;;;;;5036931;28;20052;-81
2022/11/17 02:13:02;;;;;;;10.68;4.50;;;8.60;99.90;;;;;;5041187;28;20059;-81
2022/11/17 02:15:30;;;;;;;7.32;5.03;;;8.60;99.90;;;;;;5037952;28;20049;-84
2022/11/17 02:17:57;;;;;;;11.20;4.60;;;8.50;99.90;;;;;;5043172;28;20141;-81
2022/11/17 02:20:44;;;;;;;10.70;3.53;;;8.60;99.90;;;;;;5040589;28;20434;-81
2022/11/17 02:23:22;;;;;;;5.47;3.47;;;8.50;99.90;;;;;;5022149;28;20054;-80
2022/11/17 02:25:51;;;;;;;5.90;3.72;;;8.50;99.90;;;;;;5020140;28;20380;-80
2022/11/17 02:28:31;;;;;;;7.35;4.32;;;8.40;99.90;;;;;;5040145;28;20406;-85
2022/11/17 02:31:05;;;;;;;8.95;4.20;;;8.50;99.90;;;;;;5041075;28;20057;-83
2022/11/17 02:34:02;;;;;;;10.35;3.75;;;8.50;99.90;;;;;;5045951;28;20056;-80
2022/11/17 02:36:31;;;;;;;8.10;4.15;;;8.50;99.90;;;;;;5038847;28;20128;-81
2022/11/17 02:39:13;;;;;;;9.95;4.70;;;8.40;99.90;;;;;;5040561;28;20080;-80
2022/11/17 02:45:23;;;;;;;8.27;3.88;;;8.40;99.90;;;;;;5038322;28;20051;-80
2022/11/17 02:47:52;;;;;;;7.80;4.65;;;8.40;99.90;;;;;;5040547;28;20068;-81
2022/11/17 02:50:20;;;;;;;5.97;3.13;;;8.40;99.90;;;;;;5034233;28;20045;-80
2022/11/17 02:52:46;;;;;;;7.07;3.55;;;8.30;99.90;;;;;;5037643;28;20057;-79
2022/11/17 02:55:13;;;;;;;6.22;3.28;;;8.40;99.90;;;;;;5026646;28;20064;-80
2022/11/17 02:57:40;;;;;;;8.27;5.22;;;8.40;99.90;;;;;;5034397;28;20147;-79
2022/11/17 03:00:15;;;;;;;9.43;4.85;;;8.40;99.90;;;;;;5038780;28;20713;-80
2022/11/17 03:02:53;;;;;;;7.18;4.15;;;8.40;99.90;;;;;;5021658;28;20061;-80
2022/11/17 03:05:46;;;;;;;10.55;5.43;;;8.40;99.90;;;;;;5044141;28;20099;-81
2022/11/17 03:08:32;;;;;;;10.95;4.03;;;8.40;99.90;;;;;;5029825;28;20060;-81
2022/11/17 03:11:03;;;;;;;7.00;3.65;;;8.40;99.90;;;;;;5035315;28;20049;-79
2022/11/17 03:13:32;;;;;;;10.18;3.63;;;8.40;99.90;;;;;;5033788;28;20127;-83
2022/11/17 03:16:12;;;;;;;6.97;3.45;;;8.40;99.90;;;;;;5021312;28;20053;-80
2022/11/17 03:19:17;;;;;;;7.13;3.55;;;8.40;99.90;;;;;;5035269;28;20059;-80
2022/11/17 03:22:02;;;;;;;5.28;3.30;;;8.40;99.90;;;;;;5046239;28;20451;-80
2022/11/17 03:24:48;;;;;;;6.57;3.67;;;8.40;99.90;;;;;;5030268;28;20052;-79
2022/11/17 03:27:24;;;;;;;7.63;3.75;;;8.40;99.90;;;;;;5038739;28;20451;-81
2022/11/17 03:29:54;;;;;;;6.47;3.08;;;8.40;99.90;;;;;;5032197;28;20076;-79
2022/11/17 03:32:22;;;;;;;5.82;2.88;;;8.40;99.90;;;;;;5034711;28;20052;-79
2022/11/17 03:34:58;;;;;;;7.57;3.20;;;8.40;99.90;;;;;;5040891;28;20053;-80
2022/11/17 03:37:27;;;;;;;6.82;4.53;;;8.40;99.90;;;;;;5037237;28;20510;-81
2022/11/17 03:40:00;;;;;;;4.47;2.88;;;8.40;99.90;;;;;;5034363;28;20049;-79
2022/11/17 03:42:32;;;;;;;7.03;2.65;;;8.40;99.90;;;;;;5034153;28;20480;-80
2022/11/17 03:45:05;;;;;;;;;;;8.40;99.90;;;;;;5030624;28;20060;-80
2022/11/17 03:47:31;;;;;;;;;;;8.40;99.90;;;;;;5026170;28;20376;-80
2022/11/17 03:50:12;;;;;;;4.60;3.45;;;8.40;99.90;;;;;;5018368;28;19929;-83
2022/11/17 03:52:40;;;;;;;8.18;4.13;;;8.40;99.90;;;;;;5035593;28;20077;-84
2022/11/17 03:55:07;;;;;;;10.73;3.53;;;8.40;99.90;;;;;;5031134;28;20385;-83
2022/11/17 03:57:40;;;;;;;5.00;3.00;;;8.40;99.90;;;;;;5032627;28;20041;-82
2022/11/17 04:00:10;;;;;;;5.88;4.10;;;8.30;99.90;;;;;;5037851;28;20056;-81
2022/11/17 04:02:39;;;;;;;7.72;3.70;;;8.30;99.90;;;;;;5032401;28;20439;-82
2022/11/17 04:05:05;;;;;;;10.05;3.25;;;8.40;99.90;;;;;;5030182;28;20049;-80
2022/11/17 04:07:34;;;;;;;5.65;3.90;;;8.40;99.90;;;;;;5032785;28;20128;-83
2022/11/17 04:10:00;;;;;;;5.18;3.50;;;8.40;99.90;;;;;;5027438;28;20053;-79
2022/11/17 04:17:55;;;;;;;6.38;3.70;;;8.40;99.90;;;;;;5033366;28;20928;-81
2022/11/17 04:20:22;;;;;;;12.60;3.75;;;8.40;99.90;;;;;;5034766;28;20067;-81
2022/11/17 04:23:06;;;;;;;11.00;4.32;;;8.40;99.90;;;;;;5033193;28;20102;-80
2022/11/17 04:28:36;;;;;;;8.90;3.50;;;8.40;99.90;;;;;;5033499;28;20120;-79
2022/11/17 04:31:16;;;;;;;7.72;3.50;;;8.40;99.90;;;;;;5032223;28;20435;-81
2022/11/17 04:33:46;;;;;;;5.50;3.10;;;8.40;99.90;;;;;;5033530;28;20037;-80
2022/11/17 04:36:19;;;;;;;5.75;2.75;;;8.40;99.90;;;;;;5033866;28;20056;-83
2022/11/17 04:38:47;;;;;;;3.88;2.70;;;8.40;99.90;;;;;;5028899;28;20045;-79
2022/11/17 04:44:00;;;;;;;4.07;2.50;;;8.40;99.90;;;;;;5033060;28;20085;-81
2022/11/17 04:46:26;;;;;;;7.18;3.30;;;8.40;99.90;;;;;;5035101;28;20420;-80
2022/11/17 04:48:53;;;;;;;7.47;3.25;;;8.40;99.90;;;;;;5035635;28;20056;-79
2022/11/17 04:51:23;;;;;;;4.57;2.97;;;8.20;99.90;;;;;;5026415;28;20053;-83
2022/11/17 04:53:50;;;;;;;6.07;2.47;;;8.40;99.90;;;;;;5040223;28;20048;-79
2022/11/17 04:56:17;;;;;;;8.43;3.50;;;8.30;99.90;;;;;;5033189;28;20076;-82
2022/11/17 04:58:43;;;;;;;3.50;2.72;;;8.30;99.90;;;;;;5039251;28;20052;-79
2022/11/17 05:01:12;;;;;;;5.60;2.92;;;8.40;99.90;;;;;;5023462;28;20056;-83
2022/11/17 05:03:45;;;;;;;7.00;3.45;;;8.30;99.90;;;;;;5031394;28;20045;-81
2022/11/17 05:06:17;;;;;;;4.10;2.40;;;8.30;99.90;;;;;;5030981;28;20522;-79
2022/11/17 05:08:43;;;;;;;;;;;8.30;99.90;;;;;;5016604;28;20053;-83
2022/11/17 05:14:26;;;;;;;4.75;2.13;;;8.30;99.90;;;;;;5036920;28;20064;-79
2022/11/17 05:17:17;;;;;;;4.53;2.50;;;8.30;99.90;;;;;;5034019;28;20056;-79
2022/11/17 05:19:46;;;;;;;5.32;1.92;;;8.20;99.90;;;;;;5029397;28;20388;-81
2022/11/17 05:25:44;;;;;;;6.22;3.22;;;8.20;99.90;;;;;;5036568;28;20045;-80
2022/11/17 05:28:14;;;;;;;5.45;2.85;;;8.20;99.90;;;;;;5033734;28;20435;-81
2022/11/17 05:30:42;;;;;;;3.22;2.13;;;8.10;99.90;;;;;;5038507;28;20088;-80
2022/11/17 05:33:49;;;;;;;5.80;2.33;;;8.10;99.90;;;;;;5039540;28;20461;-79
2022/11/17 05:36:26;;;;;;;4.53;3.38;;;8.10;99.90;;;;;;5033772;28;20037;-82
2022/11/17 05:38:59;;;;;;;3.80;2.30;;;8.10;99.90;;;;;;5039122;28;20045;-82
2022/11/17 05:41:29;;;;;;;6.18;2.83;;;8.00;99.90;;;;;;5022446;28;20145;-79
2022/11/17 05:43:59;;;;;;;3.45;1.88;;;8.00;99.90;;;;;;5017900;28;20497;-78
2022/11/17 05:46:31;;;;;;;3.00;2.55;;;8.00;99.90;;;;;;5005365;28;20068;-81
2022/11/17 05:48:57;;;;;;;2.50;2.15;;;7.90;99.90;;;;;;5015478;28;20054;-79
2022/11/17 05:51:23;;;;;;;5.88;2.20;;;7.90;99.90;;;;;;4992902;28;20048;-79
2022/11/17 05:53:50;;;;;;;3.22;2.20;;;7.90;99.90;;;;;;5016504;28;20686;-79
2022/11/17 05:56:32;;;;;;;3.95;1.75;;;7.80;99.90;;;;;;5016380;28;20100;-78
2022/11/17 05:59:24;;;;;;;3.25;2.78;;;7.80;99.90;;;;;;5018778;28;20056;-80
2022/11/17 06:02:03;;;;;;;5.55;1.85;;;7.80;99.90;;;;;;5021453;28;20511;-78
2022/11/17 06:04:37;;;;;;;3.03;1.67;;;7.70;99.90;;;;;;5030982;28;20103;-81
2022/11/17 06:07:12;;;;;;;3.05;2.17;;;7.70;99.90;;;;;;5010026;28;20041;-79
2022/11/17 06:09:40;;;;;;;2.55;1.88;;;7.60;99.90;;;;;;5022807;28;20647;-81
2022/11/17 06:12:10;;;;;;;4.05;1.92;;;7.70;99.90;;;;;;5017870;28;20528;-79
2022/11/17 06:14:38;;;;;;;4.13;1.52;;;7.70;99.90;;;;;;5013284;28;20056;-79
2022/11/17 06:17:44;;;;;;;2.95;1.58;;;7.60;99.90;;;;;;5010320;28;20125;-79
2022/11/17 06:20:21;;;;;;;4.68;2.33;;;7.70;99.90;;;;;;5024902;28;20073;-78
2022/11/17 06:22:48;;;;;;;5.43;2.78;;;7.60;99.90;;;;;;5036841;28;20054;-79
2022/11/17 06:25:19;;;;;;;4.53;2.15;;;7.60;99.90;;;;;;5032142;28;20045;-80
2022/11/17 06:27:53;;;;;;;2.05;1.85;;;7.60;99.90;;;;;;5036820;28;20057;-80
2022/11/17 06:30:19;;;;;;;1.83;1.65;;;7.60;99.90;;;;;;5037317;28;20127;-81
2022/11/17 06:32:53;;;;;;;3.78;2.05;;;7.60;99.90;;;;;;5032854;28;20046;-79
2022/11/17 06:35:18;;;;;;;4.07;2.88;;;7.60;99.90;;;;;;5038580;28;20099;-83
2022/11/17 06:37:44;;;;;;;3.00;1.50;;;7.60;99.90;;;;;;5034193;28;20457;-81
2022/11/17 06:40:12;;;;;;;4.57;2.00;;;7.60;99.90;;;;;;5018347;28;20049;-81
2022/11/17 06:45:23;;;;;;;2.47;1.33;;;7.60;99.90;;;;;;5037721;28;20119;-80
2022/11/17 06:47:51;;;;;;;6.43;2.40;;;7.60;99.90;;;;;;5040246;28;20151;-82
2022/11/17 06:50:16;;;;;;;2.28;2.05;;;7.60;99.90;;;;;;5041537;28;20114;-80
2022/11/17 06:52:42;;;;;;;3.13;2.50;;;7.60;99.90;;;;;;5039802;28;20041;-80
2022/11/17 06:55:08;;;;;;;3.83;3.03;;;7.60;99.90;;;;;;5034325;28;20037;-81
2022/11/17 06:57:33;;;;;;;2.30;1.60;;;7.60;99.90;;;;;;5031796;28;20058;-81
2022/11/17 06:59:59;;;;;;;4.63;2.13;;;7.60;99.90;;;;;;5038528;28;20124;-80
2022/11/17 07:02:25;;;;;;;3.08;2.13;;;7.60;99.90;;;;;;5018050;28;20163;-81
2022/11/17 07:04:50;;;;;;;6.20;2.50;;;7.50;99.90;;;;;;5037382;28;20433;-82
2022/11/17 07:07:16;;;;;;;5.38;2.00;;;7.60;99.90;;;;;;5037804;28;20568;-81
2022/11/17 07:09:42;;;;;;;4.10;2.33;;;7.60;99.90;;;;;;5016894;28;20531;-80
2022/11/17 07:12:07;;;;;;;4.68;2.65;;;7.60;99.90;;;;;;5049109;28;20052;-80
2022/11/17 07:14:33;;;;;;;3.20;1.95;;;7.60;99.90;;;;;;5035963;28;20132;-80
2022/11/17 07:16:58;;;;;;;6.38;3.15;;;7.60;99.90;;;;;;5035670;28;20076;-80
2022/11/17 07:19:24;;;;;;;4.43;2.30;;;7.60;99.90;;;;;;5016859;28;20040;-81
2022/11/17 07:21:50;;;;;;;4.20;1.98;;;7.60;99.90;;;;;;5037426;28;20041;-82
2022/11/17 07:24:15;;;;;;;4.22;2.97;;;7.60;99.90;;;;;;5039016;28;20045;-81
2022/11/17 07:26:41;;;;;;;2.70;1.75;;;7.60;99.90;;;;;;5038143;28;20111;-81
2022/11/17 07:29:07;;;;;;;3.28;2.22;;;7.60;99.90;;;;;;5032445;28;20041;-80
2022/11/17 07:31:35;;;;;;;1.90;1.52;;;7.60;99.90;;;;;;5038901;28;20057;-80
2022/11/17 07:34:02;;;;;;;2.60;1.63;;;7.60;99.90;;;;;;5006069;28;20128;-80
2022/11/17 07:36:27;;;;;;;5.75;2.97;;;7.60;99.90;;;;;;5036197;28;20451;-81
2022/11/17 07:38:53;;;;;;;5.22;2.00;;;7.60;99.90;;;;;;5042858;28;20045;-81
2022/11/17 07:41:18;;;;;;;5.00;2.95;;;7.60;99.90;;;;;;5040141;28;20387;-80
2022/11/17 07:43:44;;;;;;;3.25;2.15;;;7.60;99.90;;;;;;5039872;28;20049;-81
2022/11/17 07:46:11;;;;;;;3.42;2.25;;;7.60;99.90;;;;;;5016365;28;20064;-85
2022/11/17 07:48:37;;;;;;;2.67;1.30;;;7.60;99.90;;;;;;5021834;28;20550;-82
2022/11/17 07:51:04;;;;;;;2.20;1.92;;;7.60;99.90;;;;;;5044096;28;20124;-81
2022/11/17 07:53:31;;;;;;;3.40;1.70;;;7.60;99.90;;;;;;5034626;28;20304;-80
2022/11/17 07:56:02;;;;;;;1.55;1.45;;;7.60;99.90;;;;;;5023150;28;20060;-81
2022/11/17 07:58:28;;;;;;;2.58;2.17;;;7.60;99.90;;;;;;5038199;28;20045;-83
2022/11/17 08:00:54;;;;;;;8.25;2.00;;;7.60;99.90;;;;;;5045023;28;20158;-82
2022/11/17 08:03:20;;;;;;;3.13;2.45;;;7.50;99.90;;;;;;5016478;28;20523;-80
2022/11/17 08:05:45;;;;;;;5.75;2.22;;;7.60;99.90;;;;;;5037856;28;20045;-80
2022/11/17 08:08:12;;;;;;;2.50;1.70;;;7.60;99.90;;;;;;5034917;28;20399;-80
2022/11/17 08:10:38;;;;;;;2.58;2.10;;;7.60;99.90;;;;;;5039773;28;20094;-80
2022/11/17 08:13:05;;;;;;;1.95;1.75;;;7.60;99.90;;;;;;5020258;28;20102;-82
2022/11/17 08:15:31;;;;;;;2.65;1.95;;;7.60;99.90;;;;;;5043242;28;20052;-81
2022/11/17 08:17:58;;;;;;;4.53;1.45;;;7.60;99.90;;;;;;5037682;28;20053;-81
2022/11/17 08:20:26;;;;;;;5.35;1.85;;;7.60;99.90;;;;;;5036508;28;20071;-81
2022/11/17 08:22:52;;;;;;;7.50;3.00;;;7.60;99.90;;;;;;5039775;28;20042;-82
2022/11/17 08:25:19;;;;;;;3.75;2.13;;;7.60;99.90;;;;;;5042534;28;20049;-81
2022/11/17 08:27:47;;;;;;;3.63;1.67;;;7.60;99.90;;;;;;5044435;28;20072;-81
2022/11/17 08:30:13;;;;;;;1.77;0.80;;;7.70;99.90;;;;;;5033698;28;20045;-82
2022/11/17 08:32:46;;;;;;;3.85;2.28;;;7.60;99.90;;;;;;5039852;28;20043;-81
2022/11/17 08:35:12;;;;;;;5.85;2.15;;;7.60;99.90;;;;;;5033510;28;20493;-81
2022/11/17 08:37:39;;;;;;;3.47;2.17;;;7.70;99.90;;;;;;5033240;28;20072;-81
2022/11/17 08:40:06;;;;;;;2.30;1.73;;;7.70;99.90;;;;;;5037585;28;20055;-82
2022/11/17 08:42:31;;;;;;;2.67;1.52;;;7.60;99.90;;;;;;5021596;28;20038;-81
2022/11/17 08:44:57;;;;;;;2.95;1.58;;;7.70;99.90;;;;;;5041459;28;20103;-80
2022/11/17 08:47:23;;;;;;;1.33;1.23;;;7.70;99.90;;;;;;5033076;28;20056;-81
2022/11/17 08:49:48;;;;;;;2.65;1.80;;;7.70;99.90;;;;;;5037418;28;20041;-81
2022/11/17 08:52:14;;;;;;;5.03;2.22;;;7.70;99.90;;;;;;5020785;28;20127;-81
2022/11/17 08:54:40;;;;;;;2.38;2.13;;;7.80;99.90;;;;;;4994202;28;20124;-82
2022/11/17 08:57:05;;;;;;;2.58;2.05;;;7.80;99.90;;;;;;5039169;28;20072;-81
2022/11/17 08:59:31;;;;;;;2.80;2.13;;;7.80;99.90;;;;;;5010736;28;20075;-80
2022/11/17 09:01:57;;;;;;;3.35;2.08;;;7.90;99.90;;;;;;5015578;28;20396;-82
2022/11/17 09:04:22;;;;;;;5.20;1.88;;;7.80;99.90;;;;;;5038581;28;20115;-80
2022/11/17 09:06:48;;;;;;;3.40;2.30;;;7.90;99.90;;;;;;5038963;28;20045;-81
2022/11/17 09:09:14;;;;;;;3.78;0.98;;;7.90;99.90;;;;;;5023623;28;20057;-83
2022/11/17 09:11:39;;;;;;;2.03;1.65;;;7.90;99.90;;;;;;5036584;28;20107;-81
2022/11/17 09:14:06;;;;;;;2.40;1.80;;;7.90;99.90;;;;;;5023961;28;20041;-82
2022/11/17 09:16:32;;;;;;;5.28;3.08;;;7.90;99.90;;;;;;5037080;28;20036;-81
2022/11/17 09:18:57;;;;;;;3.83;2.20;;;7.90;99.90;;;;;;5045504;28;20059;-81
2022/11/17 09:21:30;;;;;;;2.22;1.63;;;8.00;99.90;;;;;;5037698;28;20439;-79
2022/11/17 09:23:55;;;;;;;3.15;1.92;;;7.90;99.90;;;;;;5036293;28;20053;-81
2022/11/17 09:26:21;;;;;;;2.17;1.35;;;7.90;99.90;;;;;;5033142;28;20099;-81
2022/11/17 09:28:47;;;;;;;2.65;1.40;;;7.90;99.90;;;;;;5036637;28;20044;-81
2022/11/17 09:31:18;;;;;;;1.85;1.27;;;7.90;99.90;;;;;;5035287;28;20037;-83
2022/11/17 09:33:44;;;;;;;2.92;1.17;;;8.00;99.90;;;;;;5037385;28;20444;-81
2022/11/17 09:36:11;;;;;;;12.13;2.45;;;8.00;99.90;;;;;;5034689;28;20088;-82
2022/11/17 09:38:37;;;;;;;2.85;2.15;;;8.00;99.90;;;;;;5021919;28;20483;-81
2022/11/17 09:41:25;;;;;;;3.97;1.38;;;8.00;99.90;;;;;;5039802;28;20467;-81
2022/11/17 09:44:24;;;;;;;2.25;1.45;;;8.00;99.90;;;;;;5037688;28;20041;-81
2022/11/17 09:46:49;;;;;;;1.67;1.20;;;8.10;99.90;;;;;;5042026;28;20069;-81
2022/11/17 09:49:29;;;;;;;1.35;0.80;;;8.10;99.90;;;;;;5037230;28;20484;-81
2022/11/17 09:51:59;;;;;;;3.22;1.65;;;8.10;99.90;;;;;;5039629;28;20037;-81
2022/11/17 09:54:39;;;;;;;4.28;1.67;;;8.10;99.90;;;;;;5042133;28;20045;-81
2022/11/17 09:57:14;;;;;;;1.77;1.60;;;8.10;99.90;;;;;;5037004;28;20453;-81
2022/11/17 09:59:40;;;;;;;2.80;2.55;;;8.20;99.90;;;;;;5034373;28;20048;-82
2022/11/17 10:02:09;;;;;;;3.22;2.25;;;8.20;99.90;;;;;;5036650;28;20041;-80
2022/11/17 10:04:35;;;;;;;2.15;1.90;;;8.20;99.90;;;;;;5035533;28;21213;-82
2022/11/17 10:07:02;;;;;;;2.42;1.73;;;8.20;99.90;;;;;;5038077;28;20041;-81
2022/11/17 10:09:44;;;;;;;3.10;1.85;;;8.20;99.90;;;;;;5039102;28;20046;-82
2022/11/17 10:12:18;;;;;;;3.37;2.10;;;8.20;99.90;;;;;;5037326;28;20040;-81
2022/11/17 10:14:46;;;;;;;2.17;1.63;;;8.30;99.90;;;;;;5040405;28;20038;-81
2022/11/17 10:17:12;;;;;;;1.95;1.25;;;8.30;99.90;;;;;;5039909;28;20088;-82
2022/11/17 10:19:39;;;;;;;5.13;1.40;;;8.30;99.90;;;;;;5046235;28;20407;-81
2022/11/17 10:22:05;;;;;;;4.80;2.15;;;8.40;99.90;;;;;;5052620;28;20037;-82
2022/11/17 10:24:35;;;;;;;3.00;1.40;;;8.40;99.90;;;;;;5035426;28;20041;-80
2022/11/17 10:27:17;;;;;;;2.55;1.35;;;8.50;99.90;;;;;;5036087;28;20090;-81
2022/11/17 10:29:58;;;;;;;2.30;1.33;;;8.60;99.90;;;;;;5042635;28;20524;-81
2022/11/17 10:32:24;;;;;;;2.25;1.00;;;8.70;99.90;;;;;;5037746;28;20046;-80
2022/11/17 10:34:50;;;;;;;2.80;1.60;;;8.80;99.90;;;;;;5041305;28;20052;-81
2022/11/17 10:37:23;;;;;;;2.53;1.30;;;8.90;99.90;;;;;;5044373;28;20566;-83
2022/11/17 10:39:49;;;;;;;3.00;2.15;;;9.10;99.90;;;;;;5044298;28;20036;-81
2022/11/17 10:42:23;;;;;;;2.88;1.75;;;9.10;99.90;;;;;;5045504;28;20067;-81
2022/11/17 10:44:52;;;;;;;5.65;1.83;;;9.20;99.90;;;;;;5024897;28;20076;-82
2022/11/17 10:47:39;;;;;;;4.57;1.48;;;9.20;99.90;;;;;;5037009;28;20088;-81
2022/11/17 10:50:26;;;;;;;8.45;1.80;;;9.30;99.90;;;;;;5050967;28;20045;-81
2022/11/17 10:52:53;;;;;;;1.40;1.02;;;9.30;99.90;;;;;;5038932;28;20174;-81
2022/11/17 10:55:22;;;;;;;2.85;1.42;;;9.30;99.90;;;;;;5041746;28;20056;-81
2022/11/17 10:58:09;;;;;;;3.55;2.63;;;9.30;99.90;;;;;;5021251;28;20061;-81
2022/11/17 11:00:36;;;;;;;2.90;2.70;;;9.30;99.90;;;;;;5016571;28;20037;-82
2022/11/17 11:03:19;;;;;;;1.60;1.17;;;9.30;99.90;;;;;;5040603;28;20040;-82
2022/11/17 11:05:59;;;;;;;1.67;1.40;;;9.30;99.90;;;;;;5034682;28;20033;-82
2022/11/17 11:08:40;;;;;;;3.28;1.70;;;9.30;99.90;;;;;;5035933;28;20044;-82
2022/11/17 11:11:20;;;;;;;2.25;1.60;;;9.30;99.90;;;;;;5038939;28;20048;-82
2022/11/17 11:14:00;;;;;;;2.25;1.58;;;9.30;99.90;;;;;;5019187;28;20472;-81
2022/11/17 11:16:28;;;;;;;2.95;1.40;;;9.30;99.90;;;;;;5041291;28;20045;-81
2022/11/17 11:18:54;;;;;;;1.42;1.33;;;9.40;99.90;;;;;;5035758;28;20103;-81
2022/11/17 11:21:29;;;;;;;2.78;1.73;;;9.40;99.90;;;;;;5035678;28;20040;-82
2022/11/17 11:24:11;;;;;;;4.10;1.25;;;9.40;99.90;;;;;;5039106;28;20049;-81
2022/11/17 11:26:40;;;;;;;1.75;1.27;;;9.40;99.90;;;;;;5035314;28;20121;-81
2022/11/17 11:29:21;;;;;;;1.98;1.55;;;9.40;99.90;;;;;;5020180;28;20045;-82
2022/11/17 11:32:00;;;;;;;1.52;1.23;;;9.50;99.90;;;;;;5034743;28;20486;-82
2022/11/17 11:34:31;;;;;;;1.30;0.98;;;9.50;99.90;;;;;;5043106;28;20045;-80
2022/11/17 11:37:17;;;;;;;1.25;1.15;;;9.60;99.90;;;;;;5041446;28;20046;-81
2022/11/17 11:39:43;;;;;;;1.02;0.93;;;9.60;99.90;;;;;;5033943;28;20050;-81
2022/11/17 11:42:46;;;;;;;14.23;6.72;;;9.60;99.90;;;;;;5052966;28;20499;-81
2022/11/17 11:45:23;;;;;;;0.45;0.43;;;9.70;99.90;;;;;;5032041;28;20042;-82
2022/11/17 11:48:00;;;;;;;2.47;0.95;;;9.80;99.90;;;;;;5027200;28;20045;-81
2022/11/17 11:50:30;;;;;;;0.73;0.73;;;9.80;99.90;;;;;;5042843;28;20080;-80
2022/11/17 11:53:04;;;;;;;0.60;0.38;;;9.80;99.90;;;;;;5038843;28;20046;-81
2022/11/17 11:55:34;;;;;;;1.23;0.43;;;9.90;99.90;;;;;;5042525;28;20452;-80
2022/11/17 11:58:05;;;;;;;2.53;0.63;;;9.90;99.90;;;;;;5052308;28;20500;-81
2022/11/17 12:00:32;;;;;;;3.42;1.08;;;9.90;99.90;;;;;;5052149;28;20098;-80
2022/11/17 12:03:25;;;;;;;2.20;0.60;;;9.90;99.90;;;;;;5053308;28;20057;-80
2022/11/17 12:09:11;;;;;;;1.23;0.55;;;10.10;99.90;;;;;;5022530;28;20479;-81
2022/11/17 12:14:34;;;;;;;0.20;0.20;;;10.20;99.90;;;;;;5032533;28;20083;-80
2022/11/17 12:17:22;;;;;;;0.40;0.30;;;10.20;99.90;;;;;;5033476;28;20041;-80
2022/11/17 12:19:52;;;;;;;3.00;0.52;;;10.20;99.90;;;;;;5038562;28;20112;-80
2022/11/17 12:22:45;;;;;;;0.70;0.35;;;10.20;99.90;;;;;;5036661;28;20099;-81
2022/11/17 12:25:16;;;;;;;5.95;0.60;;;10.20;99.90;;;;;;5049659;28;20136;-81
2022/11/17 12:27:43;;;;;;;2.30;0.43;;;10.20;99.90;;;;;;5034451;28;20041;-80
2022/11/17 12:30:27;;;;;;;2.00;0.85;;;10.20;99.90;;;;;;5069039;28;20090;-81
2022/11/17 12:32:54;;;;;;;0.95;0.82;;;10.20;99.90;;;;;;5052153;28;20043;-80
2022/11/17 12:35:23;;;;;;;0.70;0.22;;;10.20;99.90;;;;;;5042176;28;20037;-81
2022/11/17 12:38:08;;;;;;;2.13;1.05;;;10.20;99.90;;;;;;5021296;28;20041;-80
2022/11/17 12:40:37;;;;;;;1.80;0.63;;;10.20;99.90;;;;;;5033085;28;20116;-80
2022/11/17 12:43:15;;;;;;;3.40;1.00;;;10.20;99.90;;;;;;5035984;28;20037;-82
2022/11/17 12:46:05;;;;;;;2.38;2.15;;;10.20;99.90;;;;;;5035741;28;20045;-81
2022/11/17 12:48:34;;;;;;;0.77;0.45;;;10.20;99.90;;;;;;5034229;28;20480;-82
2022/11/17 12:51:37;;;;;;;0.95;0.70;;;10.20;99.90;;;;;;5035185;28;20041;-80
2022/11/17 12:54:03;;;;;;;1.00;0.80;;;10.20;99.90;;;;;;5033424;28;20171;-81
2022/11/17 12:56:38;;;;;;;0.98;0.40;;;10.20;99.90;;;;;;5033571;28;20507;-83
2022/11/17 12:59:36;;;;;;;1.15;0.55;;;10.20;99.90;;;;;;5034918;28;20072;-81
2022/11/17 13:02:36;;;;;;;0.82;0.40;;;10.20;99.90;;;;;;5040058;28;20045;-81
2022/11/17 13:05:29;;;;;;;0.73;0.47;;;10.20;99.90;;;;;;5038858;28;20472;-81
2022/11/17 13:08:28;;;;;;;5.05;1.23;;;10.20;99.90;;;;;;5036207;28;20504;-81
2022/11/17 13:11:10;;;;;;;2.40;0.60;;;10.20;99.90;;;;;;5005415;28;20045;-82
2022/11/17 13:13:37;;;;;;;0.65;0.55;;;10.30;99.90;;;;;;5031417;28;20127;-83
2022/11/17 13:16:03;;;;;;;3.58;0.55;;;10.30;99.90;;;;;;5000896;28;20425;-81
2022/11/17 13:18:39;;;;;;;0.73;0.43;;;10.30;99.90;;;;;;5027825;28;20049;-82
2022/11/17 13:21:35;;;;;;;0.55;0.20;;;10.30;99.90;;;;;;5031415;28;20048;-80
2022/11/17 13:24:00;;;;;;;0.50;0.50;;;10.30;99.90;;;;;;5030221;28;20087;-81
2022/11/17 13:26:36;;;;;;;0.80;0.60;;;10.30;99.90;;;;;;5034647;28;20051;-80
2022/11/17 13:29:03;;;;;;;0.30;0.30;;;10.30;99.90;;;;;;5039321;28;20174;-80
2022/11/17 13:31:29;;;;;;;1.80;0.70;;;10.30;99.90;;;;;;5032191;28;20048;-80
2022/11/17 13:34:12;;;;;;;0.40;0.40;;;10.30;99.90;;;;;;5015446;28;20397;-80
2022/11/17 13:36:55;;;;;;;0.30;0.30;;;10.30;99.90;;;;;;5016434;28;20060;-81
2022/11/17 13:39:21;;;;;;;1.27;0.68;;;10.30;99.90;;;;;;5036305;28;20049;-81
2022/11/17 13:41:48;;;;;;;0.60;0.40;;;10.30;99.90;;;;;;5034793;28;20056;-82
2022/11/17 13:44:21;;;;;;;0.40;0.40;;;10.40;99.90;;;;;;5034228;28;20072;-81
2022/11/17 13:46:46;;;;;;;1.38;0.73;;;10.40;99.90;;;;;;5048460;28;20366;-81
2022/11/17 13:49:35;;;;;;;0.30;0.30;;;10.40;99.90;;;;;;5040571;28;20095;-81
2022/11/17 13:52:01;;;;;;;1.98;0.75;;;10.40;99.90;;;;;;5041445;28;20044;-80
2022/11/17 13:54:27;;;;;;;0.65;0.60;;;10.40;99.90;;;;;;5036092;28;20104;-81
2022/11/17 13:56:59;;;;;;;0.95;0.52;;;10.50;99.90;;;;;;5035515;28;20089;-80
2022/11/17 13:59:29;;;;;;;0.50;0.50;;;10.50;99.90;;;;;;5035700;28;20045;-80
2022/11/17 14:02:13;;;;;;;1.45;0.70;;;10.40;99.90;;;;;;5035611;28;20611;-80